Airfield :
LOGIN :

Register | Disclaimer

   EN    FR    IT 

 










Legend :    VFR   Marginal VFR   IFR   Intensive IFR   Very Intensive IFR
Visi :
Ceiling :
>= 8 km
>= 3000ft
5 to 8 km
1000 to 3000 ft
1500m to 5 km
500 to 1000 ft
800 to 1500m
200 to 500 ft
< 800m
< 200 ft
Symbols :   Thunderstorms  Fog  Heavy snow  Heavy precipitations  Wind > 20 kt
SIGMETs :     Misc.  Thunderstorms  Icing  Turbulence  Mountain Waves  Volcanic Ashes






- Airport Elevation : 266 ft
- IATA code : NCL


EGNT - Newcastle

CURRENT METAR :
  • 291050Z 06014KT 9999 SCT009 15/11 Q1007

EXPIRED METARs :
  • 291020Z 07014KT 9999 SCT009 14/11 Q1007
  • 290920Z 06013KT 9999 BKN009 14/12 Q1006
  • 290850Z 06014KT 9999 BKN009 14/12 Q1006
  • 290820Z 05013KT 9999 BKN010 14/12 Q1006
  • 290750Z 05012KT 9999 BKN010 13/12 Q1005

TAF AMD TAF EGNT
Valid from the 29 at 09:00 until the 30 at 06:00 UTC


290931Z 2909/3006 05008KT 9999 SCT020
TEMPO 2909/2913 BKN009
PROB30
TEMPO 2909/2913 7000 -SHRA
PROB30 2921/3003 8000
BECMG 3003/3006 18010KT
ATIS : +44 191 214 3400



MET'MAP, your aeronautical weather chart ! - Copyright ORBIFLY December 2007 - Disclaimer

ORBIFLY MET'MAP TEAM :

Programming & Development : Alexandra Zaïnal
Original concept : Baudouin d'Aumeries
Technical & hardware support : Manuel Goepfert
Assistance : Marc-Olivier Méhu




SOURCES & CREDITS :

   NOAA